Time;durP1;ratioP1;P1;durP2;ratioP2;P2;SDS_P1;SDS_P2;PMS_P1;PMS_P2;Temp;Humidity;BMP_temperature;BMP_pressure;BME280_temperature;BME280_humidity;BME280_pressure;Samples;Min_cycle;Max_cycle;Signal;HPM_P1;HPM_P2
2021/04/30 00:02:20;;;;;;;39.60;25.48;;;7.20;99.90;;;;;;5034264;28;20489;-80
2021/04/30 00:04:46;;;;;;;41.38;25.70;;;7.20;99.90;;;;;;5049125;28;20465;-81
2021/04/30 00:07:12;;;;;;;33.90;23.63;;;7.20;99.90;;;;;;5041269;28;20037;-79
2021/04/30 00:09:38;;;;;;;42.97;24.42;;;7.30;99.90;;;;;;5051715;28;20040;-84
2021/04/30 00:12:04;;;;;;;38.33;24.40;;;7.20;99.90;;;;;;5045682;28;20056;-78
2021/04/30 00:14:30;;;;;;;37.55;24.80;;;7.20;99.90;;;;;;5040305;28;20492;-79
2021/04/30 00:16:55;;;;;;;38.72;24.90;;;7.20;99.90;;;;;;5050936;28;20113;-78
2021/04/30 00:19:21;;;;;;;36.97;24.80;;;7.10;99.90;;;;;;5049748;28;20029;-80
2021/04/30 00:21:47;;;;;;;38.63;24.65;;;7.20;99.90;;;;;;5048476;28;20101;-85
2021/04/30 00:24:15;;;;;;;35.97;25.42;;;7.10;99.90;;;;;;5060350;28;20044;-81
2021/04/30 00:26:41;;;;;;;38.15;25.63;;;7.10;99.90;;;;;;5021878;28;20045;-78
2021/04/30 00:29:07;;;;;;;;;;;7.10;99.90;;;;;;5045923;28;20067;-80
2021/04/30 00:31:34;;;;;;;37.97;24.33;;;7.00;99.90;;;;;;5058711;28;19916;-79
2021/04/30 00:34:00;;;;;;;38.80;25.65;;;7.10;99.90;;;;;;5049933;28;20044;-77
2021/04/30 00:36:26;;;;;;;37.83;24.80;;;7.10;99.90;;;;;;5043241;28;20043;-80
2021/04/30 00:38:52;;;;;;;41.20;25.27;;;7.00;99.90;;;;;;5057255;28;20580;-78
2021/04/30 00:41:18;;;;;;;34.35;23.23;;;7.10;99.90;;;;;;5033715;28;20038;-80
2021/04/30 00:43:44;;;;;;;38.42;24.38;;;7.00;99.90;;;;;;5038307;28;20370;-82
2021/04/30 00:46:09;;;;;;;37.60;25.45;;;7.00;99.90;;;;;;5048516;28;20052;-83
2021/04/30 00:48:35;;;;;;;38.88;24.63;;;7.00;99.90;;;;;;5051565;28;20040;-82
2021/04/30 00:51:01;;;;;;;37.67;24.48;;;7.10;99.90;;;;;;5048842;28;20029;-81
2021/04/30 00:53:27;;;;;;;37.17;24.95;;;7.00;99.90;;;;;;5032548;28;20119;-81
2021/04/30 00:55:53;;;;;;;38.03;24.13;;;7.00;99.90;;;;;;5049777;28;20037;-83
2021/04/30 00:58:19;;;;;;;37.05;24.17;;;7.00;99.90;;;;;;5050784;28;20045;-83
2021/04/30 01:00:45;;;;;;;37.42;25.23;;;7.00;99.90;;;;;;5031742;28;20041;-82
2021/04/30 01:03:11;;;;;;;37.17;24.95;;;7.00;99.90;;;;;;5032538;28;20064;-79
2021/04/30 01:05:38;;;;;;;36.50;23.85;;;7.10;99.90;;;;;;5050070;28;20091;-80
2021/04/30 01:08:06;;;;;;;37.03;24.77;;;7.00;99.90;;;;;;5049313;28;20438;-80
2021/04/30 01:10:33;;;;;;;37.00;24.90;;;7.00;99.90;;;;;;5050680;28;20505;-79
2021/04/30 01:12:59;;;;;;;39.28;24.70;;;7.10;99.90;;;;;;5049988;28;20064;-79
2021/04/30 01:15:25;;;;;;;;;;;7.10;99.90;;;;;;5050618;28;20505;-80
2021/04/30 01:17:51;;;;;;;44.20;24.38;;;7.10;99.90;;;;;;5049979;28;19947;-82
2021/04/30 01:20:18;;;;;;;;;;;7.00;99.90;;;;;;5032514;28;20033;-80
2021/04/30 01:22:53;;;;;;;40.50;23.67;;;7.00;99.90;;;;;;5032625;28;20333;-82
2021/04/30 01:25:34;;;;;;;37.20;24.40;;;7.00;99.90;;;;;;5029466;28;20033;-79
2021/04/30 01:28:02;;;;;;;37.05;25.50;;;7.00;99.90;;;;;;5045907;28;20080;-82
2021/04/30 01:30:34;;;;;;;37.58;24.90;;;7.00;99.90;;;;;;5026600;28;20057;-83
2021/04/30 01:33:01;;;;;;;35.92;24.80;;;7.00;99.90;;;;;;5049503;28;20044;-81
2021/04/30 01:35:34;;;;;;;38.80;24.42;;;7.10;99.90;;;;;;5049995;28;20052;-81
2021/04/30 01:38:01;;;;;;;36.88;25.08;;;6.90;99.90;;;;;;5026121;28;20033;-81
2021/04/30 01:40:31;;;;;;;37.45;24.73;;;6.90;99.90;;;;;;5050661;28;20486;-83
2021/04/30 01:43:06;;;;;;;42.35;26.17;;;6.90;99.90;;;;;;5036148;28;20474;-83
2021/04/30 01:45:39;;;;;;;36.58;25.10;;;6.90;99.90;;;;;;5052334;28;20036;-84
2021/04/30 01:48:15;;;;;;;36.35;25.08;;;6.90;99.90;;;;;;5040923;28;20943;-82
2021/04/30 01:50:44;;;;;;;36.72;24.15;;;6.90;99.90;;;;;;5055217;28;20033;-80
2021/04/30 01:53:11;;;;;;;38.38;24.73;;;6.90;99.90;;;;;;5051458;28;20528;-77
2021/04/30 01:55:38;;;;;;;34.10;22.73;;;6.80;99.90;;;;;;5054824;28;20037;-81
2021/04/30 01:58:04;;;;;;;39.65;26.30;;;6.80;99.90;;;;;;5037308;28;20044;-81
2021/04/30 02:00:31;;;;;;;38.13;24.95;;;6.80;99.90;;;;;;5043400;28;20044;-78
2021/04/30 02:02:58;;;;;;;42.28;25.77;;;6.90;99.90;;;;;;5055467;28;20028;-81
2021/04/30 02:05:29;;;;;;;40.00;25.15;;;6.80;99.90;;;;;;5052118;28;20037;-78
2021/04/30 02:08:00;;;;;;;43.80;26.05;;;6.80;99.90;;;;;;5038030;28;20044;-82
2021/04/30 02:10:26;;;;;;;34.90;24.55;;;6.80;99.90;;;;;;5053233;28;20044;-80
2021/04/30 02:12:53;;;;;;;38.83;23.15;;;6.80;99.90;;;;;;5026549;28;20033;-78
2021/04/30 02:15:21;;;;;;;36.53;23.98;;;6.80;99.90;;;;;;5052982;28;20037;-82
2021/04/30 02:17:47;;;;;;;35.97;23.27;;;6.80;99.90;;;;;;5052957;28;20040;-79
2021/04/30 02:20:14;;;;;;;38.58;23.63;;;6.80;99.90;;;;;;5059489;28;20048;-80
2021/04/30 02:22:40;;;;;;;38.72;22.42;;;6.80;99.90;;;;;;5035563;28;20029;-81
2021/04/30 02:25:07;;;;;;;;;;;6.90;99.90;;;;;;5056584;28;20044;-84
2021/04/30 02:27:33;;;;;;;37.22;22.98;;;6.90;99.90;;;;;;5037114;28;20035;-81
2021/04/30 02:30:00;;;;;;;31.63;21.67;;;6.90;99.90;;;;;;5030439;28;20101;-82
2021/04/30 02:32:29;;;;;;;33.75;21.75;;;6.90;99.90;;;;;;5066658;28;20496;-80
2021/04/30 02:34:56;;;;;;;35.83;23.63;;;6.90;99.90;;;;;;5051450;28;20033;-83
2021/04/30 02:37:24;;;;;;;32.72;21.83;;;7.00;99.90;;;;;;5055898;28;20036;-81
2021/04/30 02:39:50;;;;;;;31.13;20.58;;;7.10;99.90;;;;;;5057067;28;20033;-81
2021/04/30 02:42:23;;;;;;;35.70;23.08;;;7.10;99.90;;;;;;5065639;28;20041;-84
2021/04/30 02:44:50;;;;;;;32.15;21.27;;;7.00;99.90;;;;;;5035216;28;20103;-83
2021/04/30 02:47:16;;;;;;;34.22;22.00;;;7.00;99.90;;;;;;5052650;28;20108;-82
2021/04/30 02:49:46;;;;;;;33.83;20.95;;;7.00;99.90;;;;;;5033861;28;20045;-83
2021/04/30 02:52:16;;;;;;;35.47;22.63;;;7.00;99.90;;;;;;5052012;28;20033;-80
2021/04/30 02:54:43;;;;;;;38.47;22.75;;;7.00;99.90;;;;;;5050792;28;20037;-84
2021/04/30 02:57:09;;;;;;;37.63;22.65;;;7.00;99.90;;;;;;5055465;28;20473;-78
2021/04/30 02:59:34;;;;;;;35.70;21.60;;;7.00;99.90;;;;;;5037183;28;20283;-80
2021/04/30 03:02:02;;;;;;;35.60;21.92;;;7.00;99.90;;;;;;5049559;28;20036;-79
2021/04/30 03:04:28;;;;;;;37.83;22.00;;;7.00;99.90;;;;;;5051198;28;20094;-81
2021/04/30 03:06:54;;;;;;;33.67;20.83;;;7.00;99.90;;;;;;5052400;28;20032;-80
2021/04/30 03:09:20;;;;;;;37.17;21.15;;;7.00;99.90;;;;;;5052223;28;20044;-81
2021/04/30 03:11:46;;;;;;;38.00;20.55;;;7.00;99.90;;;;;;5053506;28;20478;-82
2021/04/30 03:14:12;;;;;;;35.95;20.80;;;7.00;99.90;;;;;;5053042;28;20497;-81
2021/04/30 03:16:37;;;;;;;;;;;6.90;99.90;;;;;;5067164;28;20036;-80
2021/04/30 03:19:04;;;;;;;37.38;21.27;;;6.90;99.90;;;;;;5058608;28;19917;-83
2021/04/30 03:21:30;;;;;;;37.15;22.17;;;6.90;99.90;;;;;;5051164;28;20071;-84
2021/04/30 03:23:56;;;;;;;;;;;6.90;99.90;;;;;;5063825;28;20094;-80
2021/04/30 03:26:22;;;;;;;34.42;21.30;;;6.90;99.90;;;;;;5036460;28;19921;-83
2021/04/30 03:28:47;;;;;;;35.35;21.02;;;7.20;99.90;;;;;;5051678;28;20045;-80
2021/04/30 03:31:14;;;;;;;36.08;21.05;;;6.80;99.90;;;;;;5051267;28;20041;-79
2021/04/30 03:33:40;;;;;;;;;;;6.80;99.90;;;;;;5035896;28;20033;-82
2021/04/30 03:36:07;;;;;;;33.75;20.92;;;6.80;99.90;;;;;;5050877;28;19921;-82
2021/04/30 03:38:33;;;;;;;38.20;21.20;;;6.80;99.90;;;;;;5028672;28;20385;-83
2021/04/30 03:40:59;;;;;;;37.35;21.08;;;6.70;99.90;;;;;;5054052;28;20103;-79
2021/04/30 03:43:25;;;;;;;33.85;20.38;;;6.80;99.90;;;;;;5033862;28;20032;-80
2021/04/30 03:45:51;;;;;;;37.30;21.98;;;6.70;99.90;;;;;;5051511;28;20040;-80
2021/04/30 03:48:24;;;;;;;37.63;21.85;;;6.80;99.90;;;;;;5024105;28;20084;-78
2021/04/30 03:50:50;;;;;;;36.50;21.75;;;6.80;99.90;;;;;;5031801;28;20045;-78
2021/04/30 03:53:16;;;;;;;32.20;20.30;;;6.80;99.90;;;;;;5017592;28;20475;-80
2021/04/30 03:55:42;;;;;;;36.85;22.90;;;6.80;99.90;;;;;;5051816;28;20068;-80
2021/04/30 03:58:09;;;;;;;35.13;21.38;;;6.80;99.90;;;;;;5033926;28;20076;-80
2021/04/30 04:00:35;;;;;;;38.92;21.98;;;6.80;99.90;;;;;;5048512;28;20075;-83
2021/04/30 04:03:01;;;;;;;39.97;22.42;;;6.80;99.90;;;;;;5060481;28;20037;-80
2021/04/30 04:05:27;;;;;;;42.70;23.17;;;6.80;99.90;;;;;;5049643;28;20154;-78
2021/04/30 04:07:52;;;;;;;36.08;21.48;;;6.80;99.90;;;;;;5032582;28;20047;-84
2021/04/30 04:10:18;;;;;;;42.38;24.48;;;6.80;99.90;;;;;;5039762;28;20238;-81
2021/04/30 04:12:44;;;;;;;39.78;21.60;;;6.80;99.90;;;;;;5037702;28;20086;-84
2021/04/30 04:15:10;;;;;;;37.42;22.23;;;6.80;99.90;;;;;;5049801;28;20465;-86
2021/04/30 04:17:36;;;;;;;40.17;21.15;;;6.80;99.90;;;;;;5067235;28;20118;-80
2021/04/30 04:20:03;;;;;;;;;;;6.80;99.90;;;;;;5053894;28;20092;-78
2021/04/30 04:22:32;;;;;;;40.45;21.35;;;6.80;99.90;;;;;;5051804;28;20022;-82
2021/04/30 04:24:58;;;;;;;36.03;19.48;;;6.90;99.90;;;;;;5028288;28;20061;-81
2021/04/30 04:27:23;;;;;;;38.17;20.63;;;6.80;99.90;;;;;;5050514;28;20052;-81
2021/04/30 04:29:49;;;;;;;36.70;18.60;;;6.90;99.90;;;;;;5051147;28;20041;-83
2021/04/30 04:32:16;;;;;;;37.53;21.17;;;6.90;99.90;;;;;;5051225;28;20458;-84
2021/04/30 04:34:42;;;;;;;35.97;18.90;;;6.90;99.90;;;;;;5050393;28;20043;-83
2021/04/30 04:37:08;;;;;;;34.78;18.15;;;7.00;99.90;;;;;;5053042;28;20037;-84
2021/04/30 04:39:34;;;;;;;30.95;17.52;;;7.00;99.90;;;;;;5019132;28;20044;-81
2021/04/30 04:42:02;;;;;;;35.00;17.80;;;7.00;99.90;;;;;;5039575;28;20095;-83
2021/04/30 04:44:28;;;;;;;39.58;21.10;;;7.20;99.90;;;;;;5022968;28;20037;-81
2021/04/30 04:46:55;;;;;;;31.27;18.10;;;7.10;99.90;;;;;;5034110;28;20091;-86
2021/04/30 04:49:21;;;;;;;33.65;18.08;;;7.10;99.90;;;;;;5015614;28;20136;-80
2021/04/30 04:51:47;;;;;;;32.50;17.55;;;7.10;99.90;;;;;;5051165;28;20037;-82
2021/04/30 04:54:12;;;;;;;25.27;16.85;;;7.20;99.90;;;;;;5040756;28;20112;-82
2021/04/30 04:56:38;;;;;;;29.77;17.27;;;7.20;99.90;;;;;;5051576;28;20041;-81
2021/04/30 04:59:04;;;;;;;30.92;16.98;;;7.20;99.90;;;;;;5050428;28;20041;-84
2021/04/30 05:01:30;;;;;;;34.92;17.55;;;7.20;99.90;;;;;;5050864;28;20515;-80
2021/04/30 05:03:55;;;;;;;30.85;17.80;;;7.20;99.90;;;;;;5040552;28;20051;-81
2021/04/30 05:06:21;;;;;;;33.47;17.83;;;7.30;99.90;;;;;;5055414;28;20041;-83
2021/04/30 05:08:47;;;;;;;34.20;17.48;;;7.30;99.90;;;;;;5043929;28;20045;-83
2021/04/30 05:11:13;;;;;;;30.58;17.13;;;7.30;99.90;;;;;;5047080;28;20037;-82
2021/04/30 05:13:39;;;;;;;35.05;16.38;;;7.30;99.90;;;;;;5032784;28;20448;-81
2021/04/30 05:16:06;;;;;;;31.55;17.77;;;7.40;99.90;;;;;;5049551;28;20115;-80
2021/04/30 05:18:31;;;;;;;26.65;16.38;;;7.40;99.90;;;;;;5050997;28;20103;-77
2021/04/30 05:20:58;;;;;;;33.45;16.55;;;7.50;99.90;;;;;;5054648;28;20468;-81
2021/04/30 05:23:25;;;;;;;30.98;17.23;;;7.50;99.90;;;;;;5060836;28;20440;-79
2021/04/30 05:25:53;;;;;;;33.80;16.85;;;7.60;99.90;;;;;;5055771;28;20091;-80
2021/04/30 05:28:19;;;;;;;29.73;17.27;;;7.60;99.90;;;;;;5034959;28;20136;-78
2021/04/30 05:30:46;;;;;;;28.95;16.83;;;7.60;99.90;;;;;;5069250;28;20611;-82
2021/04/30 05:33:12;;;;;;;39.80;17.90;;;7.70;99.90;;;;;;5036395;28;20032;-83
2021/04/30 05:35:38;;;;;;;32.00;17.23;;;7.70;99.90;;;;;;5053588;28;20482;-83
2021/04/30 05:38:05;;;;;;;39.03;16.60;;;7.70;99.90;;;;;;5053951;28;20041;-83
2021/04/30 05:40:36;;;;;;;31.58;17.02;;;7.80;99.90;;;;;;5045157;28;20148;-79
2021/04/30 05:43:02;;;;;;;30.95;16.38;;;7.80;99.90;;;;;;5057141;28;20033;-80
2021/04/30 05:45:27;;;;;;;34.92;17.15;;;7.80;99.90;;;;;;5056774;28;20037;-80
2021/04/30 05:47:53;;;;;;;33.40;17.83;;;7.80;99.90;;;;;;5067378;28;20384;-75
2021/04/30 05:50:20;;;;;;;32.75;16.23;;;7.80;99.90;;;;;;5056868;28;20033;-80
2021/04/30 05:52:46;;;;;;;28.67;15.43;;;7.80;99.90;;;;;;5068027;28;20069;-79
2021/04/30 05:55:12;;;;;;;30.42;17.33;;;7.90;99.90;;;;;;5055894;28;20049;-78
2021/04/30 05:57:38;;;;;;;;;;;8.00;99.90;;;;;;5035406;28;20036;-81
2021/04/30 06:00:09;;;;;;;23.48;15.23;;;8.00;99.90;;;;;;5053585;28;19939;-80
2021/04/30 06:02:36;;;;;;;30.42;15.65;;;8.00;99.90;;;;;;5059294;28;20039;-82
2021/04/30 06:05:02;;;;;;;28.65;16.20;;;8.00;99.90;;;;;;5053135;28;20040;-83
2021/04/30 06:07:28;;;;;;;31.40;16.55;;;8.00;99.90;;;;;;5032148;28;20042;-83
2021/04/30 06:09:54;;;;;;;28.13;15.40;;;8.00;99.90;;;;;;5053591;28;20131;-82
2021/04/30 06:12:20;;;;;;;31.02;16.05;;;8.10;99.90;;;;;;5036534;28;20419;-79
2021/04/30 06:14:46;;;;;;;24.30;13.45;;;8.10;99.90;;;;;;5053618;28;20059;-82
2021/04/30 06:17:11;;;;;;;35.47;15.43;;;8.10;99.90;;;;;;5035523;28;20083;-82
2021/04/30 06:19:37;;;;;;;28.15;15.10;;;8.20;99.90;;;;;;5067902;28;20041;-85
2021/04/30 06:22:03;;;;;;;32.47;15.10;;;8.20;99.90;;;;;;5072323;28;20393;-83
2021/04/30 06:24:35;;;;;;;32.03;14.23;;;8.20;99.90;;;;;;5052153;28;20047;-80
2021/04/30 06:27:01;;;;;;;24.27;13.73;;;8.20;99.90;;;;;;5044149;28;20128;-80
2021/04/30 06:29:27;;;;;;;34.25;15.20;;;8.20;99.90;;;;;;5014941;28;20041;-77
2021/04/30 06:31:54;;;;;;;34.75;14.82;;;8.20;99.90;;;;;;5062452;28;20047;-83
2021/04/30 06:34:21;;;;;;;26.98;14.57;;;8.30;99.90;;;;;;5051145;28;20095;-80
2021/04/30 06:36:47;;;;;;;26.65;15.85;;;8.40;99.90;;;;;;5044130;28;20045;-82
2021/04/30 06:39:12;;;;;;;23.27;15.13;;;8.40;99.90;;;;;;5052119;28;20036;-81
2021/04/30 06:41:38;;;;;;;28.40;14.55;;;8.40;99.90;;;;;;5060174;28;20094;-80
2021/04/30 06:44:04;;;;;;;31.00;13.82;;;8.50;99.90;;;;;;5057146;28;20424;-78
2021/04/30 06:46:30;;;;;;;;;;;8.50;99.90;;;;;;5052376;28;20106;-82
2021/04/30 06:48:56;;;;;;;29.35;14.55;;;8.60;99.90;;;;;;5046300;28;19924;-78
2021/04/30 06:51:22;;;;;;;24.67;14.15;;;8.60;99.90;;;;;;5053328;28;20033;-82
2021/04/30 06:53:48;;;;;;;27.05;15.25;;;8.60;99.90;;;;;;5058728;28;20044;-81
2021/04/30 06:56:14;;;;;;;30.90;14.77;;;8.70;99.90;;;;;;5043965;28;20041;-82
2021/04/30 06:58:40;;;;;;;31.83;14.38;;;8.80;99.90;;;;;;5047567;28;20042;-81
2021/04/30 07:01:09;;;;;;;27.13;15.35;;;8.80;99.90;;;;;;5050603;28;20037;-81
2021/04/30 07:03:35;;;;;;;28.90;13.90;;;8.90;99.90;;;;;;5048569;28;20042;-84
2021/04/30 07:06:01;;;;;;;29.48;14.63;;;8.90;99.90;;;;;;5051945;28;20503;-79
2021/04/30 07:08:26;;;;;;;26.80;14.70;;;9.20;99.90;;;;;;5051684;28;20124;-77
2021/04/30 07:10:55;;;;;;;28.55;14.48;;;9.00;99.90;;;;;;5051860;28;20037;-80
2021/04/30 07:13:21;;;;;;;25.90;14.43;;;9.00;99.90;;;;;;5038351;28;20033;-83
2021/04/30 07:15:47;;;;;;;25.08;13.07;;;9.10;99.90;;;;;;5059454;28;20375;-78
2021/04/30 07:18:13;;;;;;;24.15;12.88;;;9.10;99.90;;;;;;5054397;28;20041;-79
2021/04/30 07:20:38;;;;;;;29.42;14.38;;;9.20;99.90;;;;;;5035236;28;20037;-80
2021/04/30 07:23:04;;;;;;;26.27;14.65;;;9.20;99.90;;;;;;5066021;28;20067;-82
2021/04/30 07:25:31;;;;;;;26.33;12.73;;;9.30;99.90;;;;;;5053347;28;20045;-77
2021/04/30 07:27:58;;;;;;;24.05;12.63;;;9.30;99.90;;;;;;5056759;28;20425;-82
2021/04/30 07:30:23;;;;;;;21.23;12.80;;;9.20;99.90;;;;;;5052154;28;20120;-80
2021/04/30 07:32:50;;;;;;;24.98;13.90;;;9.20;99.90;;;;;;5053846;28;20466;-80
2021/04/30 07:35:16;;;;;;;27.08;13.05;;;9.20;99.90;;;;;;5044894;28;20076;-83
2021/04/30 07:37:42;;;;;;;24.48;12.32;;;9.20;99.90;;;;;;5051805;28;20064;-79
2021/04/30 07:40:09;;;;;;;22.52;13.18;;;9.20;99.90;;;;;;5034395;28;20422;-82
2021/04/30 07:42:37;;;;;;;25.58;12.43;;;9.30;99.90;;;;;;5051036;28;20033;-82
2021/04/30 07:45:04;;;;;;;21.58;13.13;;;9.30;99.90;;;;;;5052147;28;20043;-80
2021/04/30 07:47:30;;;;;;;20.17;12.50;;;9.40;99.90;;;;;;5051369;28;20087;-80
2021/04/30 07:49:59;;;;;;;24.70;12.65;;;9.50;99.90;;;;;;5044812;28;20083;-79
2021/04/30 07:52:25;;;;;;;24.08;12.15;;;9.60;99.90;;;;;;5051615;28;20470;-80
2021/04/30 07:54:51;;;;;;;24.00;12.98;;;9.60;99.90;;;;;;5039881;28;20049;-80
2021/04/30 07:57:16;;;;;;;20.30;12.02;;;9.70;99.90;;;;;;5041945;28;20108;-81
2021/04/30 07:59:42;;;;;;;19.95;11.43;;;9.80;99.90;;;;;;5029878;28;20140;-79
2021/04/30 08:02:10;;;;;;;23.70;12.45;;;9.90;99.90;;;;;;5033433;28;20040;-82
2021/04/30 08:04:37;;;;;;;19.83;12.02;;;10.00;99.90;;;;;;5046934;28;20044;-78
2021/04/30 08:07:02;;;;;;;23.45;13.05;;;10.00;99.90;;;;;;5032587;28;20037;-78
2021/04/30 08:09:28;;;;;;;24.85;13.75;;;10.10;99.90;;;;;;5051315;28;20087;-80
2021/04/30 08:11:54;;;;;;;28.40;12.77;;;10.20;99.90;;;;;;5050835;28;20128;-81
2021/04/30 08:14:20;;;;;;;24.25;11.60;;;10.20;99.90;;;;;;5050531;28;20474;-78
2021/04/30 08:16:46;;;;;;;23.60;11.85;;;10.30;99.90;;;;;;5052835;28;20409;-77
2021/04/30 08:19:11;;;;;;;24.83;11.95;;;10.30;99.90;;;;;;5048643;28;20037;-81
2021/04/30 08:21:37;;;;;;;19.80;11.93;;;10.40;99.90;;;;;;5050312;28;20040;-76
2021/04/30 08:24:04;;;;;;;16.17;10.48;;;10.50;99.90;;;;;;5053589;28;20025;-81
2021/04/30 08:26:30;;;;;;;18.50;11.95;;;10.50;99.90;;;;;;5052181;28;20037;-80
2021/04/30 08:28:56;;;;;;;;;;;10.40;99.90;;;;;;5050601;28;20124;-77
2021/04/30 08:31:22;;;;;;;21.73;11.82;;;10.40;99.90;;;;;;5045856;28;20059;-80
2021/04/30 08:33:49;;;;;;;22.38;12.23;;;10.40;99.90;;;;;;5064312;28;20029;-77
2021/04/30 08:36:16;;;;;;;24.20;12.77;;;10.40;99.90;;;;;;5047953;28;20041;-76
2021/04/30 08:38:43;;;;;;;21.83;12.80;;;10.40;99.90;;;;;;5025568;28;20127;-78
2021/04/30 08:41:09;;;;;;;21.75;13.40;;;10.50;99.90;;;;;;5023685;28;20043;-81
2021/04/30 08:43:36;;;;;;;21.65;12.43;;;10.60;99.90;;;;;;5065089;28;20037;-75
2021/04/30 08:46:04;;;;;;;23.60;12.50;;;10.80;99.90;;;;;;5033053;28;20040;-78
2021/04/30 08:48:32;;;;;;;21.27;12.45;;;10.90;99.90;;;;;;5033319;28;20072;-79
2021/04/30 08:50:59;;;;;;;20.15;11.85;;;10.90;99.90;;;;;;5050576;28;20041;-81
2021/04/30 08:53:24;;;;;;;;;;;11.00;99.90;;;;;;5052784;28;20095;-78
2021/04/30 08:55:52;;;;;;;17.80;11.90;;;10.90;99.90;;;;;;5053310;28;19921;-78
2021/04/30 08:58:25;;;;;;;20.98;12.48;;;10.90;99.90;;;;;;5043594;28;20032;-79
2021/04/30 09:00:55;;;;;;;22.67;13.07;;;11.00;99.90;;;;;;5036895;28;20060;-80
2021/04/30 09:03:21;;;;;;;18.73;11.93;;;11.00;99.90;;;;;;5052042;28;20037;-77
2021/04/30 09:05:48;;;;;;;;;;;10.90;99.90;;;;;;5018778;28;20068;-76
2021/04/30 09:08:15;;;;;;;13.68;9.63;;;10.90;99.90;;;;;;5053546;28;20369;-77
2021/04/30 09:10:42;;;;;;;18.13;10.77;;;10.90;99.90;;;;;;5054339;28;20092;-80
2021/04/30 09:13:13;;;;;;;18.90;11.43;;;11.00;99.90;;;;;;5052668;28;20415;-78
2021/04/30 09:15:44;;;;;;;16.98;10.85;;;11.10;99.90;;;;;;5042938;28;20057;-78
2021/04/30 09:18:25;;;;;;;20.50;11.85;;;11.20;99.90;;;;;;5046425;28;20540;-79
2021/04/30 09:20:52;;;;;;;14.57;9.95;;;11.40;99.90;;;;;;5051143;28;20102;-81
2021/04/30 09:23:45;;;;;;;14.95;10.20;;;11.50;99.90;;;;;;5048126;28;20478;-77
2021/04/30 09:26:29;;;;;;;16.85;10.95;;;11.50;99.90;;;;;;5052446;28;20033;-79
2021/04/30 09:29:00;;;;;;;18.50;11.85;;;11.60;99.90;;;;;;5035775;28;649593;-79
2021/04/30 09:31:42;;;;;;;15.88;11.18;;;11.80;99.90;;;;;;5048508;28;20124;-79
2021/04/30 09:34:27;;;;;;;16.30;10.98;;;12.00;99.90;;;;;;5028914;28;20049;-81
2021/04/30 09:36:59;;;;;;;22.10;12.32;;;12.20;99.90;;;;;;5062167;28;20037;-78
2021/04/30 09:39:26;;;;;;;17.75;12.07;;;12.40;99.90;;;;;;5049784;28;20486;-76
2021/04/30 09:42:10;;;;;;;18.17;12.00;;;12.60;99.90;;;;;;5029152;28;20044;-77
2021/04/30 09:44:47;;;;;;;20.63;12.88;;;12.70;99.90;;;;;;5045513;28;20409;-76
2021/04/30 09:47:18;;;;;;;17.58;11.55;;;12.80;99.90;;;;;;5050051;28;20033;-75
2021/04/30 09:49:45;;;;;;;17.67;12.57;;;12.80;99.90;;;;;;5049096;28;20221;-78
2021/04/30 09:52:12;;;;;;;20.98;11.20;;;12.90;99.90;;;;;;5048444;28;20429;-77
2021/04/30 09:54:40;;;;;;;18.50;10.48;;;13.00;99.90;;;;;;5049215;28;20421;-76
2021/04/30 09:57:12;;;;;;;23.48;11.50;;;13.00;99.90;;;;;;5015259;28;20092;-81
2021/04/30 09:59:53;;;;;;;15.00;10.77;;;13.10;99.90;;;;;;5044949;28;20033;-81
2021/04/30 10:02:21;;;;;;;20.88;11.43;;;13.20;99.90;;;;;;5048722;28;20039;-78
2021/04/30 10:05:12;;;;;;;17.35;11.10;;;13.30;99.90;;;;;;5064235;28;20095;-76
2021/04/30 10:07:44;;;;;;;12.43;10.27;;;13.40;99.90;;;;;;5040412;28;20033;-78
2021/04/30 10:10:20;;;;;;;17.77;10.15;;;13.50;99.90;;;;;;5032299;28;20548;-77
2021/04/30 10:12:55;;;;;;;15.40;11.63;;;13.60;99.90;;;;;;5033254;28;20078;-78
2021/04/30 10:15:21;;;;;;;16.38;11.45;;;13.70;99.90;;;;;;5060499;28;20382;-78
2021/04/30 10:17:54;;;;;;;14.27;11.07;;;13.80;99.90;;;;;;5053012;28;20050;-78
2021/04/30 10:20:21;;;;;;;16.73;11.50;;;13.60;99.90;;;;;;5032689;28;20033;-76
2021/04/30 10:22:47;;;;;;;17.70;11.50;;;14.00;99.90;;;;;;5038014;28;20041;-76
2021/04/30 10:25:17;;;;;;;15.55;11.10;;;14.10;99.90;;;;;;5035534;28;20192;-77
2021/04/30 10:27:45;;;;;;;13.35;10.15;;;14.10;99.90;;;;;;5040985;28;20347;-76
2021/04/30 10:30:33;;;;;;;14.18;10.60;;;14.10;99.90;;;;;;5055349;28;20517;-77
2021/04/30 10:33:17;;;;;;;17.13;10.75;;;14.10;99.90;;;;;;5052403;28;20053;-77
2021/04/30 10:36:10;;;;;;;15.02;10.57;;;14.20;99.90;;;;;;5051260;28;20044;-75
2021/04/30 10:38:46;;;;;;;14.98;9.77;;;14.20;99.90;;;;;;5067165;28;20137;-77
2021/04/30 10:41:13;;;;;;;12.63;9.98;;;14.30;99.90;;;;;;5035769;28;20037;-76
2021/04/30 10:43:40;;;;;;;14.63;10.13;;;14.20;99.90;;;;;;5021299;28;20447;-75
2021/04/30 10:46:07;;;;;;;14.68;10.45;;;13.80;99.90;;;;;;5037038;28;20045;-75
2021/04/30 10:48:34;;;;;;;14.88;10.13;;;13.70;99.90;;;;;;5042507;28;20128;-76
2021/04/30 10:51:16;;;;;;;13.15;10.23;;;13.80;99.90;;;;;;5036950;28;20140;-77
2021/04/30 10:53:46;;;;;;;11.32;10.00;;;13.90;99.90;;;;;;5053437;28;20040;-77
2021/04/30 10:56:32;;;;;;;14.95;10.20;;;14.00;99.90;;;;;;5030117;28;20048;-76
2021/04/30 10:58:58;;;;;;;11.32;9.32;;;14.20;99.90;;;;;;5034895;28;20044;-77
2021/04/30 11:01:26;;;;;;;;;;;14.30;99.90;;;;;;5053489;28;20086;-76
2021/04/30 11:04:07;;;;;;;11.02;9.38;;;14.40;99.90;;;;;;5035782;28;20039;-77
2021/04/30 11:06:36;;;;;;;11.32;8.68;;;14.50;99.90;;;;;;5037171;28;20029;-76
2021/04/30 11:09:06;;;;;;;12.85;9.60;;;14.60;99.90;;;;;;5053002;28;20347;-76
2021/04/30 11:11:35;;;;;;;10.50;9.02;;;14.70;99.90;;;;;;5044431;28;20034;-76
2021/04/30 11:14:22;;;;;;;13.88;9.57;;;14.70;99.90;;;;;;5044758;28;20048;-75
2021/04/30 11:16:50;;;;;;;10.65;8.55;;;14.80;99.90;;;;;;5051790;28;20044;-76
2021/04/30 11:19:16;;;;;;;10.98;9.23;;;15.00;99.90;;;;;;5028099;28;20055;-79
2021/04/30 11:21:45;;;;;;;11.80;9.20;;;15.10;99.90;;;;;;5056119;28;20495;-77
2021/04/30 11:24:30;;;;;;;12.07;9.43;;;15.30;99.90;;;;;;5049368;28;20084;-76
2021/04/30 11:27:11;;;;;;;16.20;9.25;;;15.40;96.90;;;;;;5047757;28;20037;-77
2021/04/30 11:29:38;;;;;;;12.18;10.15;;;15.20;98.70;;;;;;5032964;28;20598;-77
2021/04/30 11:32:30;;;;;;;12.05;9.55;;;15.20;99.90;;;;;;5032401;28;20042;-77
2021/04/30 11:34:59;;;;;;;12.85;10.52;;;15.40;98.40;;;;;;5046890;28;20140;-77
2021/04/30 11:37:28;;;;;;;13.48;9.15;;;15.50;99.90;;;;;;5046272;28;20049;-76
2021/04/30 11:39:56;;;;;;;12.00;9.25;;;15.60;99.30;;;;;;5050552;28;20039;-77
2021/04/30 11:42:33;;;;;;;13.68;9.98;;;15.60;99.50;;;;;;5051398;28;20420;-77
2021/04/30 11:45:00;;;;;;;11.55;9.98;;;15.50;98.40;;;;;;5046644;28;20079;-76
2021/04/30 11:47:30;;;;;;;13.27;9.98;;;15.50;98.60;;;;;;5051241;28;20041;-76
2021/04/30 11:49:59;;;;;;;15.98;10.65;;;15.50;98.80;;;;;;5044635;28;20481;-77
2021/04/30 11:52:37;;;;;;;13.35;9.82;;;15.50;99.20;;;;;;5051048;28;20049;-78
2021/04/30 11:55:07;;;;;;;14.95;10.43;;;15.50;99.80;;;;;;5048494;28;20542;-77
2021/04/30 11:57:33;;;;;;;14.07;10.50;;;15.60;99.70;;;;;;5050796;28;20036;-77
2021/04/30 11:59:59;;;;;;;14.32;9.95;;;15.80;99.40;;;;;;5048060;28;20037;-78
2021/04/30 12:02:28;;;;;;;14.38;10.80;;;15.80;98.70;;;;;;5050594;28;20121;-76
2021/04/30 12:04:58;;;;;;;12.35;10.10;;;15.90;99.10;;;;;;5032657;28;20033;-77
2021/04/30 12:07:25;;;;;;;16.52;10.93;;;15.90;97.30;;;;;;5065227;28;20094;-77
2021/04/30 12:09:53;;;;;;;14.93;10.70;;;15.90;98.30;;;;;;5032864;28;20076;-78
2021/04/30 12:12:23;;;;;;;11.18;9.80;;;15.70;97.90;;;;;;5050856;28;20091;-78
2021/04/30 12:14:49;;;;;;;11.45;10.00;;;15.60;96.60;;;;;;5037485;28;20041;-77
2021/04/30 12:17:27;;;;;;;14.55;10.23;;;15.60;97.40;;;;;;5050094;28;20051;-78
2021/04/30 12:19:58;;;;;;;12.10;10.57;;;15.60;93.20;;;;;;5055003;28;20065;-76
2021/04/30 12:22:25;;;;;;;13.50;11.13;;;15.40;95.90;;;;;;5048684;28;20084;-78
2021/04/30 12:24:51;;;;;;;12.88;10.38;;;15.40;96.90;;;;;;5041840;28;20106;-79
2021/04/30 12:27:28;;;;;;;12.68;11.10;;;15.50;96.50;;;;;;5052483;28;20040;-77
2021/04/30 12:29:54;;;;;;;13.07;10.95;;;15.40;96.20;;;;;;5050038;28;20045;-78
2021/04/30 12:32:27;;;;;;;13.77;11.23;;;15.50;97.50;;;;;;5049938;28;20140;-76
2021/04/30 12:34:56;;;;;;;13.13;11.25;;;15.80;97.00;;;;;;5048872;28;20045;-77
2021/04/30 12:37:24;;;;;;;12.98;10.90;;;16.10;96.90;;;;;;5048663;28;20090;-79
2021/04/30 12:39:49;;;;;;;11.43;10.23;;;16.50;96.60;;;;;;5032776;28;20044;-78
2021/04/30 12:42:17;;;;;;;11.55;10.40;;;16.80;95.20;;;;;;5049387;28;20044;-78
2021/04/30 12:44:56;;;;;;;11.73;10.20;;;17.20;91.30;;;;;;5050364;28;20106;-78